createdAt,value
2023-04-19T00:01:33.383Z,4.30
2023-04-19T00:05:23.220Z,3.90
2023-04-19T00:08:59.029Z,3.50
2023-04-19T00:12:47.056Z,4.20
2023-04-19T00:16:31.751Z,4.10
2023-04-19T00:20:13.178Z,3.40
2023-04-19T00:23:52.067Z,3.60
2023-04-19T00:27:47.606Z,4.30
2023-04-19T00:38:39.004Z,4.20
2023-04-19T00:42:10.082Z,4.70
2023-04-19T00:51:42.193Z,5.00
2023-04-19T00:54:10.296Z,4.90
2023-04-19T00:56:37.439Z,4.40
2023-04-19T00:59:04.126Z,4.70
2023-04-19T01:01:31.099Z,4.90
2023-04-19T01:03:58.142Z,5.00
2023-04-19T01:06:27.163Z,4.90
2023-04-19T01:08:53.750Z,5.40
2023-04-19T01:11:24.036Z,5.40
2023-04-19T01:13:50.891Z,5.00
2023-04-19T01:16:18.178Z,5.10
2023-04-19T01:18:44.880Z,5.70
2023-04-19T01:21:12.177Z,5.00
2023-04-19T01:23:38.735Z,5.10
2023-04-19T01:26:05.881Z,5.00
2023-04-19T01:28:32.584Z,5.20
2023-04-19T01:30:59.226Z,4.90
2023-04-19T01:33:26.137Z,4.90
2023-04-19T01:35:52.676Z,5.80
2023-04-19T01:38:20.037Z,5.10
2023-04-19T01:40:46.891Z,5.10
2023-04-19T01:43:16.172Z,5.60
2023-04-19T01:45:44.754Z,5.60
2023-04-19T01:48:11.806Z,5.10
2023-04-19T01:50:38.403Z,4.70
2023-04-19T01:53:05.053Z,4.90
2023-04-19T01:55:32.433Z,4.90
2023-04-19T01:57:59.043Z,4.60
2023-04-19T02:00:25.620Z,4.60
2023-04-19T02:02:52.359Z,4.20
2023-04-19T02:05:19.200Z,4.50
2023-04-19T02:07:45.749Z,4.00
2023-04-19T02:10:12.364Z,4.00
2023-04-19T02:12:42.183Z,4.10
2023-04-19T02:15:09.026Z,4.50
2023-04-19T02:17:35.552Z,4.60
2023-04-19T02:20:03.642Z,4.30
2023-04-19T02:22:30.336Z,4.10
2023-04-19T02:24:56.908Z,3.30
2023-04-19T02:27:29.484Z,3.70
2023-04-19T02:29:55.995Z,3.80
2023-04-19T02:32:23.898Z,3.90
2023-04-19T02:34:50.458Z,4.00
2023-04-19T02:37:17.657Z,3.10
2023-04-19T02:39:45.148Z,3.20
2023-04-19T02:42:11.991Z,3.40
2023-04-19T02:44:38.463Z,3.30
2023-04-19T02:47:05.168Z,2.80
2023-04-19T02:49:34.993Z,2.80
2023-04-19T02:52:02.752Z,2.70
2023-04-19T02:54:29.898Z,3.10
2023-04-19T02:56:57.040Z,2.70
2023-04-19T02:59:24.326Z,2.90
2023-04-19T03:01:51.410Z,3.00
2023-04-19T03:04:18.503Z,2.80
2023-04-19T03:06:45.416Z,2.80
2023-04-19T03:09:12.868Z,3.00
2023-04-19T03:11:39.737Z,3.50
2023-04-19T03:14:06.339Z,4.10
2023-04-19T03:16:33.070Z,3.80
2023-04-19T03:18:59.774Z,3.60
2023-04-19T03:21:28.443Z,3.50
2023-04-19T03:23:55.748Z,2.80
2023-04-19T03:26:25.630Z,2.50
2023-04-19T03:28:53.749Z,2.30
2023-04-19T03:31:37.841Z,2.50
2023-04-19T03:34:04.476Z,2.10
2023-04-19T03:36:37.659Z,2.10
2023-04-19T03:39:04.295Z,2.40
2023-04-19T03:41:31.034Z,2.70
2023-04-19T03:44:04.613Z,3.20
2023-04-19T03:46:31.202Z,2.50
2023-04-19T03:48:58.373Z,2.40
2023-04-19T03:51:29.354Z,2.50
2023-04-19T03:53:56.002Z,2.30
2023-04-19T03:56:23.467Z,1.80
2023-04-19T03:58:51.538Z,2.10
2023-04-19T04:01:19.733Z,3.10
2023-04-19T04:03:46.686Z,3.60
2023-04-19T04:06:13.462Z,3.80
2023-04-19T04:08:40.496Z,3.70
2023-04-19T04:11:07.016Z,3.70
2023-04-19T04:13:34.080Z,4.50
2023-04-19T04:16:06.711Z,3.60
2023-04-19T04:18:33.687Z,4.30
2023-04-19T04:21:02.963Z,4.40
2023-04-19T04:23:30.263Z,3.70
2023-04-19T04:26:00.423Z,3.40
2023-04-19T04:28:33.621Z,3.30
2023-04-19T04:31:00.888Z,4.10
2023-04-19T04:33:30.136Z,4.50
2023-04-19T04:35:58.369Z,4.60
2023-04-19T04:38:26.720Z,5.50
2023-04-19T04:40:54.881Z,4.40
2023-04-19T04:43:23.831Z,4.10
2023-04-19T04:45:50.719Z,3.20
2023-04-19T04:48:17.545Z,2.90
2023-04-19T04:50:44.231Z,2.90
2023-04-19T04:53:13.132Z,2.90
2023-04-19T04:55:41.859Z,2.50
2023-04-19T04:58:08.523Z,2.40
2023-04-19T05:00:48.319Z,2.40
2023-04-19T05:03:15.891Z,2.50
2023-04-19T05:05:46.832Z,1.80
2023-04-19T05:08:13.545Z,1.50
2023-04-19T05:10:40.853Z,1.60
2023-04-19T05:13:07.575Z,1.60
2023-04-19T05:15:34.361Z,1.80
2023-04-19T05:18:02.146Z,2.00
2023-04-19T05:20:29.714Z,1.70
2023-04-19T05:23:02.825Z,2.00
2023-04-19T05:25:30.781Z,2.10
2023-04-19T05:27:57.430Z,3.10
2023-04-19T05:30:24.599Z,2.30
2023-04-19T05:32:51.971Z,2.40
2023-04-19T05:35:19.294Z,2.80
2023-04-19T05:37:45.936Z,1.80
2023-04-19T05:40:13.086Z,2.30
2023-04-19T05:42:39.852Z,2.90
2023-04-19T05:45:07.766Z,3.00
2023-04-19T05:47:34.553Z,2.70
2023-04-19T05:50:17.241Z,2.90
2023-04-19T05:52:47.967Z,2.80
2023-04-19T05:55:14.617Z,3.30
2023-04-19T05:58:10.525Z,2.40
2023-04-19T06:00:37.670Z,2.60
2023-04-19T06:03:31.155Z,3.00
2023-04-19T06:06:17.457Z,2.20
2023-04-19T06:09:26.478Z,2.30
2023-04-19T06:12:21.602Z,2.70
2023-04-19T06:16:12.647Z,2.60
2023-04-19T06:20:05.030Z,2.90
2023-04-19T06:23:23.910Z,3.20
2023-04-19T06:33:38.888Z,2.10
2023-04-19T06:37:33.169Z,2.10
2023-04-19T06:41:38.750Z,2.00
2023-04-19T06:45:22.789Z,2.30
2023-04-19T06:49:24.892Z,2.10
2023-04-19T06:57:45.751Z,2.40
2023-04-19T07:15:54.592Z,2.30
2023-04-19T07:18:23.180Z,2.10
2023-04-19T07:20:55.290Z,1.80
2023-04-19T07:23:25.025Z,1.90
2023-04-19T07:25:53.059Z,2.10
2023-04-19T07:28:23.212Z,1.70
2023-04-19T07:30:51.247Z,1.90
2023-04-19T07:33:19.638Z,2.40
2023-04-19T07:35:49.129Z,2.10
2023-04-19T07:38:17.921Z,2.40
2023-04-19T07:40:48.917Z,2.70
2023-04-19T07:43:18.320Z,2.00
2023-04-19T07:45:47.552Z,3.30
2023-04-19T07:48:17.560Z,2.10
2023-04-19T07:52:00.166Z,2.10
2023-04-19T07:54:05.216Z,2.00
2023-04-19T07:56:37.146Z,1.90
2023-04-19T07:59:10.039Z,2.10
2023-04-19T08:01:43.651Z,1.90
2023-04-19T08:04:12.450Z,1.90
2023-04-19T08:06:40.675Z,2.10
2023-04-19T08:09:08.715Z,1.60
2023-04-19T08:11:38.712Z,1.70
2023-04-19T08:14:15.160Z,2.30
2023-04-19T08:19:24.933Z,2.80
2023-04-19T08:21:53.342Z,1.90
2023-04-19T08:24:21.785Z,2.20
2023-04-19T08:26:53.870Z,2.10
2023-04-19T08:29:23.302Z,1.90
2023-04-19T08:31:53.685Z,2.50
2023-04-19T08:34:29.716Z,2.50
2023-04-19T08:37:03.903Z,2.50
2023-04-19T08:40:35.149Z,2.00
2023-04-19T08:43:08.584Z,1.80
2023-04-19T08:45:40.241Z,2.70
2023-04-19T08:48:11.942Z,2.70
2023-04-19T08:51:17.504Z,2.40
2023-04-19T08:53:49.662Z,2.80
2023-04-19T08:56:28.086Z,3.10
2023-04-19T08:59:18.170Z,2.90
2023-04-19T09:01:48.073Z,2.40
2023-04-19T09:04:34.607Z,2.30
2023-04-19T09:07:08.397Z,3.30
2023-04-19T09:09:51.667Z,2.50
2023-04-19T09:12:31.298Z,2.80
2023-04-19T09:15:02.338Z,2.80
2023-04-19T09:17:32.057Z,3.10
2023-04-19T09:20:17.309Z,3.10
2023-04-19T09:23:36.464Z,2.80
2023-04-19T09:26:47.651Z,3.10
2023-04-19T09:29:54.545Z,2.80
2023-04-19T09:33:03.085Z,3.20
2023-04-19T09:36:26.660Z,2.90
2023-04-19T09:40:10.102Z,3.60
2023-04-19T09:43:57.580Z,2.70
2023-04-19T09:47:03.400Z,3.40
2023-04-19T09:50:15.299Z,3.10
2023-04-19T09:53:04.179Z,2.50
2023-04-19T09:56:11.438Z,3.10
2023-04-19T09:59:20.897Z,2.90
2023-04-19T10:02:25.386Z,3.40
2023-04-19T10:05:20.445Z,3.50
2023-04-19T10:08:22.663Z,2.60
2023-04-19T10:11:48.242Z,2.80
2023-04-19T10:14:55.528Z,3.30
2023-04-19T10:18:12.442Z,3.50
2023-04-19T10:21:13.240Z,2.70
2023-04-19T10:24:21.376Z,2.60
2023-04-19T10:28:02.635Z,2.40
2023-04-19T10:31:27.232Z,2.10
2023-04-19T10:35:05.567Z,2.50
2023-04-19T10:41:19.094Z,2.20
2023-04-19T10:44:19.460Z,3.60
2023-04-19T10:47:01.448Z,2.90
2023-04-19T10:50:32.822Z,1.90
2023-04-19T10:53:44.523Z,1.60
2023-04-19T10:57:02.312Z,2.20
2023-04-19T10:59:32.567Z,1.70
2023-04-19T11:02:02.998Z,2.30
2023-04-19T11:05:13.876Z,2.10
2023-04-19T11:07:44.508Z,1.50
2023-04-19T11:10:12.949Z,1.90
2023-04-19T11:12:43.633Z,2.30
2023-04-19T11:15:12.001Z,2.10
2023-04-19T11:17:40.305Z,1.80
2023-04-19T11:20:10.324Z,1.90
2023-04-19T11:22:41.656Z,1.80
2023-04-19T11:25:16.624Z,1.80
2023-04-19T11:27:48.010Z,1.40
2023-04-19T11:30:19.437Z,2.10
2023-04-19T11:32:49.163Z,1.40
2023-04-19T11:35:32.329Z,1.90
2023-04-19T11:38:00.301Z,1.30
2023-04-19T11:40:28.283Z,1.90
2023-04-19T11:43:00.502Z,1.80
2023-04-19T11:45:36.500Z,1.50
2023-04-19T11:48:17.032Z,1.80
2023-04-19T11:50:46.645Z,1.50
2023-04-19T11:53:19.384Z,2.70
2023-04-19T11:55:52.000Z,2.50
2023-04-19T11:58:31.979Z,1.70
2023-04-19T12:01:08.339Z,1.70
2023-04-19T12:03:50.540Z,1.70
2023-04-19T12:06:25.983Z,4.20
2023-04-19T12:08:56.613Z,1.90
2023-04-19T12:11:41.668Z,2.40
2023-04-19T12:14:12.158Z,1.80
2023-04-19T12:16:40.922Z,1.90
2023-04-19T12:19:14.852Z,1.70
2023-04-19T12:21:44.168Z,1.50
2023-04-19T12:24:15.114Z,1.40
2023-04-19T12:28:14.542Z,1.50
2023-04-19T12:29:49.387Z,2.20
2023-04-19T12:32:17.394Z,1.80
2023-04-19T12:34:45.565Z,1.50
2023-04-19T12:37:13.863Z,3.80
2023-04-19T12:39:44.432Z,2.00
2023-04-19T12:42:12.745Z,2.00
2023-04-19T12:44:43.438Z,1.80
2023-04-19T12:47:11.613Z,1.60
2023-04-19T12:49:43.734Z,1.50
2023-04-19T12:52:11.873Z,1.80
2023-04-19T12:54:41.538Z,1.60
2023-04-19T12:57:11.049Z,1.60
2023-04-19T12:59:39.053Z,1.30
2023-04-19T13:02:07.403Z,1.70
2023-04-19T13:04:36.920Z,2.20
2023-04-19T13:07:05.463Z,1.60
2023-04-19T13:09:34.903Z,1.90
2023-04-19T13:12:04.094Z,1.50
2023-04-19T13:14:32.225Z,1.60
2023-04-19T13:17:00.227Z,1.60
2023-04-19T13:19:29.602Z,2.10
2023-04-19T13:21:59.628Z,2.00
2023-04-19T13:24:27.592Z,1.70
2023-04-19T13:26:55.481Z,1.30
2023-04-19T13:29:23.756Z,1.50
2023-04-19T13:31:53.986Z,4.60
2023-04-19T13:34:24.842Z,1.80
2023-04-19T13:36:54.468Z,1.60
2023-04-19T13:39:24.722Z,1.60
2023-04-19T13:41:54.714Z,3.00
2023-04-19T13:44:25.663Z,3.10
2023-04-19T13:46:54.009Z,3.20
2023-04-19T13:49:24.936Z,3.70
2023-04-19T13:51:57.210Z,3.60
2023-04-19T13:54:42.714Z,3.70
2023-04-19T13:57:12.944Z,3.30
2023-04-19T13:59:49.625Z,3.80
2023-04-19T14:02:24.464Z,3.80
2023-04-19T14:04:54.852Z,4.20
2023-04-19T14:07:23.104Z,4.30
2023-04-19T14:09:54.130Z,3.80
2023-04-19T14:12:22.185Z,3.70
2023-04-19T14:14:52.777Z,4.10
2023-04-19T14:17:23.782Z,3.90
2023-04-19T14:19:58.900Z,3.90
2023-04-19T14:22:33.569Z,4.40
2023-04-19T14:25:01.851Z,5.00
2023-04-19T14:27:30.410Z,5.20
2023-04-19T14:30:00.500Z,5.00
2023-04-19T14:32:30.969Z,5.30
2023-04-19T14:35:04.705Z,4.60
2023-04-19T14:37:33.030Z,4.80
2023-04-19T14:40:03.742Z,5.20
2023-04-19T14:42:31.857Z,5.50
2023-04-19T14:44:59.949Z,5.60
2023-04-19T14:47:27.941Z,5.20
2023-04-19T14:49:56.121Z,5.20
2023-04-19T14:52:42.846Z,5.00
2023-04-19T14:55:11.999Z,4.70
2023-04-19T14:57:40.323Z,4.10
2023-04-19T15:00:09.408Z,4.80
2023-04-19T15:02:38.263Z,4.40
2023-04-19T15:05:11.257Z,5.40
2023-04-19T15:07:41.188Z,6.50
2023-04-19T15:10:10.274Z,10.30
2023-04-19T15:13:02.088Z,10.00
2023-04-19T15:15:31.204Z,7.10
2023-04-19T15:18:13.757Z,5.80
2023-04-19T15:20:42.926Z,4.00
2023-04-19T15:23:10.931Z,4.40
2023-04-19T15:25:39.068Z,3.90
2023-04-19T15:28:06.910Z,3.70
2023-04-19T15:30:35.419Z,3.30
2023-04-19T15:33:03.465Z,3.80
2023-04-19T15:35:32.488Z,3.40
2023-04-19T15:38:00.765Z,3.80
2023-04-19T15:40:30.121Z,4.40
2023-04-19T15:42:58.026Z,3.90
2023-04-19T15:45:25.951Z,3.90
2023-04-19T15:47:54.013Z,4.30
2023-04-19T15:50:22.240Z,4.90
2023-04-19T15:52:51.681Z,4.70
2023-04-19T15:55:19.615Z,5.70
2023-04-19T15:57:49.744Z,4.60
2023-04-19T16:00:18.133Z,4.10
2023-04-19T16:02:46.321Z,5.00
2023-04-19T16:05:15.083Z,4.50
2023-04-19T16:07:43.882Z,3.80
2023-04-19T16:10:13.181Z,3.60
2023-04-19T16:12:42.418Z,5.40
2023-04-19T16:15:10.967Z,4.20
2023-04-19T16:17:38.870Z,4.10
2023-04-19T16:20:07.621Z,4.50
2023-04-19T16:22:35.691Z,3.70
2023-04-19T16:25:03.756Z,3.70
2023-04-19T16:27:31.829Z,3.70
2023-04-19T16:29:59.804Z,3.80
2023-04-19T16:32:28.035Z,4.30
2023-04-19T16:34:55.896Z,4.20
2023-04-19T16:37:23.905Z,4.20
2023-04-19T16:39:51.787Z,5.00
2023-04-19T16:42:19.751Z,5.00
2023-04-19T16:44:47.763Z,4.70
2023-04-19T16:47:15.849Z,4.60
2023-04-19T16:49:43.615Z,4.30
2023-04-19T16:52:11.624Z,4.30
2023-04-19T16:54:40.012Z,4.30
2023-04-19T16:57:07.974Z,4.60
2023-04-19T16:59:36.705Z,4.00
2023-04-19T17:02:04.967Z,4.00
2023-04-19T17:04:33.041Z,5.20
2023-04-19T17:07:01.147Z,4.40
2023-04-19T17:09:29.666Z,4.20
2023-04-19T17:11:57.851Z,5.10
2023-04-19T17:14:25.815Z,4.30
2023-04-19T17:16:56.233Z,4.40
2023-04-19T17:19:24.105Z,4.40
2023-04-19T17:21:51.980Z,4.50
2023-04-19T17:24:20.152Z,4.70
2023-04-19T17:26:48.096Z,4.70
2023-04-19T17:29:16.278Z,4.80
2023-04-19T17:31:44.437Z,5.20
2023-04-19T17:34:12.441Z,4.70
2023-04-19T17:36:42.066Z,4.90
2023-04-19T17:39:10.103Z,5.00
2023-04-19T17:41:37.957Z,4.30
2023-04-19T17:44:05.856Z,5.20
2023-04-19T17:46:33.770Z,4.80
2023-04-19T17:49:01.816Z,5.50
2023-04-19T17:51:29.734Z,4.60
2023-04-19T17:53:57.678Z,5.20
2023-04-19T17:56:25.603Z,5.50
2023-04-19T17:58:53.504Z,4.70
2023-04-19T18:01:21.533Z,4.40
2023-04-19T18:03:49.653Z,4.50
2023-04-19T18:06:20.423Z,4.40
2023-04-19T18:08:48.420Z,4.40
2023-04-19T18:11:18.228Z,3.80
2023-04-19T18:13:46.099Z,4.10
2023-04-19T18:16:19.007Z,4.10
2023-04-19T18:22:46.263Z,3.10
2023-04-19T18:25:54.948Z,3.80
2023-04-19T18:28:27.735Z,4.80
2023-04-19T18:30:56.773Z,4.80
2023-04-19T18:33:24.843Z,4.10
2023-04-19T18:35:53.984Z,4.30
2023-04-19T18:38:22.083Z,4.70
2023-04-19T18:40:50.079Z,3.50
2023-04-19T18:43:18.153Z,4.00
2023-04-19T18:45:53.208Z,4.00
2023-04-19T18:48:21.669Z,3.90
2023-04-19T18:50:49.528Z,3.70
2023-04-19T18:53:17.617Z,3.70
2023-04-19T18:55:54.795Z,4.10
2023-04-19T18:58:22.696Z,3.90
2023-04-19T19:00:50.917Z,3.60
2023-04-19T19:03:43.694Z,3.40
2023-04-19T19:06:07.057Z,3.70
2023-04-19T19:08:35.144Z,4.10
2023-04-19T19:13:33.953Z,4.20
2023-04-19T19:16:02.251Z,4.40
2023-04-19T19:18:30.282Z,4.40
2023-04-19T19:21:01.144Z,4.60
2023-04-19T19:23:35.807Z,4.50
2023-04-19T19:26:05.985Z,5.00
2023-04-19T19:28:34.452Z,5.50
2023-04-19T19:31:02.707Z,4.90
2023-04-19T19:33:32.020Z,6.10
2023-04-19T19:36:00.736Z,5.70
2023-04-19T19:38:28.690Z,5.60
2023-04-19T19:43:27.471Z,5.20
2023-04-19T19:45:55.582Z,4.80
2023-04-19T19:48:25.157Z,5.00
2023-04-19T19:53:25.709Z,5.30
2023-04-19T19:55:53.702Z,5.30
2023-04-19T19:58:46.286Z,5.20
2023-04-19T20:01:10.349Z,5.10
2023-04-19T20:03:38.606Z,6.40
2023-04-19T20:08:43.910Z,5.70
2023-04-19T20:11:12.456Z,5.30
2023-04-19T20:13:40.416Z,5.80
2023-04-19T20:16:09.954Z,5.80
2023-04-19T20:18:37.989Z,5.40
2023-04-19T20:21:05.860Z,5.80
2023-04-19T20:23:33.686Z,6.50
2023-04-19T20:26:01.795Z,5.40
2023-04-19T20:28:29.680Z,5.40
2023-04-19T20:30:57.819Z,5.00
2023-04-19T20:33:25.917Z,5.10
2023-04-19T20:35:56.748Z,4.80
2023-04-19T20:38:26.458Z,4.40
2023-04-19T20:40:55.924Z,4.00
2023-04-19T20:43:23.896Z,4.30
2023-04-19T20:45:51.704Z,4.50
2023-04-19T20:48:19.622Z,4.40
2023-04-19T20:50:47.515Z,4.50
2023-04-19T20:53:16.436Z,4.50
2023-04-19T20:55:44.680Z,4.70
2023-04-19T20:58:12.691Z,4.60
2023-04-19T21:00:42.041Z,5.30
2023-04-19T21:03:17.185Z,4.50
2023-04-19T21:05:45.821Z,4.70
2023-04-19T21:08:15.004Z,4.70
2023-04-19T21:10:42.970Z,4.80
2023-04-19T21:13:10.870Z,4.50
2023-04-19T21:15:38.733Z,4.60
2023-04-19T21:18:06.956Z,4.20
2023-04-19T21:20:34.885Z,4.20
2023-04-19T21:23:03.325Z,4.60
2023-04-19T21:25:31.264Z,4.00
2023-04-19T21:27:59.059Z,4.40
2023-04-19T21:30:27.095Z,4.00
2023-04-19T21:32:55.138Z,4.20
2023-04-19T21:35:23.242Z,4.00
2023-04-19T21:37:51.279Z,4.50
2023-04-19T21:40:19.335Z,3.70
2023-04-19T21:42:47.294Z,4.20
2023-04-19T21:45:15.124Z,3.90
2023-04-19T21:47:43.173Z,4.20
2023-04-19T21:50:11.818Z,4.30
2023-04-19T21:52:39.684Z,4.70
2023-04-19T21:55:08.255Z,4.00
2023-04-19T21:57:38.187Z,3.30
2023-04-19T22:00:09.257Z,4.10
2023-04-19T22:02:37.480Z,3.90
2023-04-19T22:05:07.274Z,3.50
2023-04-19T22:07:38.196Z,3.40
2023-04-19T22:10:07.318Z,3.10
2023-04-19T22:12:37.386Z,3.10
2023-04-19T22:15:11.173Z,3.30
2023-04-19T22:17:40.376Z,3.30
2023-04-19T22:20:12.784Z,3.20
2023-04-19T22:22:40.709Z,3.40
2023-04-19T22:25:09.096Z,3.70
2023-04-19T22:27:37.174Z,3.30
2023-04-19T22:30:05.682Z,3.40
2023-04-19T22:32:33.600Z,3.70
2023-04-19T22:35:01.535Z,3.70
2023-04-19T22:37:29.663Z,3.40
2023-04-19T22:39:57.614Z,3.20
2023-04-19T22:42:25.759Z,3.80
2023-04-19T22:44:53.723Z,3.50
2023-04-19T22:47:21.566Z,3.50
2023-04-19T22:49:49.939Z,4.30
2023-04-19T22:52:17.787Z,3.40
2023-04-19T22:54:45.750Z,3.70
2023-04-19T22:57:13.752Z,3.60
2023-04-19T22:59:41.676Z,3.60
2023-04-19T23:02:09.786Z,3.40
2023-04-19T23:04:38.315Z,4.10
2023-04-19T23:07:06.929Z,3.40
2023-04-19T23:09:34.809Z,3.50
2023-04-19T23:12:02.832Z,3.40
2023-04-19T23:14:31.336Z,3.30
2023-04-19T23:17:01.724Z,3.50
2023-04-19T23:19:30.582Z,3.40
2023-04-19T23:21:58.542Z,3.60
2023-04-19T23:24:26.490Z,3.50
2023-04-19T23:26:54.410Z,3.60
2023-04-19T23:29:22.230Z,3.00
2023-04-19T23:31:50.201Z,3.40
2023-04-19T23:34:18.381Z,2.70
2023-04-19T23:37:03.690Z,3.30
2023-04-19T23:39:39.178Z,3.00
2023-04-19T23:45:54.674Z,3.20
2023-04-19T23:56:10.161Z,3.30
